sensor_id;sensor_type;location;lat;lon;timestamp;P1;durP1;ratioP1;P2;durP2;ratioP2
20621;SDS011;10470;42.670;23.354;2022-07-30T00:01:03;4.03;;;3.60;;
20621;SDS011;10470;42.670;23.354;2022-07-30T00:03:28;5.50;;;3.87;;
20621;SDS011;10470;42.670;23.354;2022-07-30T00:05:54;4.00;;;3.60;;
20621;SDS011;10470;42.670;23.354;2022-07-30T00:08:23;4.40;;;3.80;;
20621;SDS011;10470;42.670;23.354;2022-07-30T00:10:49;4.60;;;3.70;;
20621;SDS011;10470;42.670;23.354;2022-07-30T00:13:15;5.27;;;4.03;;
20621;SDS011;10470;42.670;23.354;2022-07-30T00:15:41;4.17;;;3.40;;
20621;SDS011;10470;42.670;23.354;2022-07-30T00:18:07;4.27;;;3.87;;
20621;SDS011;10470;42.670;23.354;2022-07-30T00:20:32;4.10;;;3.70;;
20621;SDS011;10470;42.670;23.354;2022-07-30T00:22:58;3.90;;;3.50;;
20621;SDS011;10470;42.670;23.354;2022-07-30T00:25:28;3.70;;;3.40;;
20621;SDS011;10470;42.670;23.354;2022-07-30T00:27:54;4.47;;;3.40;;
20621;SDS011;10470;42.670;23.354;2022-07-30T00:30:19;4.00;;;3.60;;
20621;SDS011;10470;42.670;23.354;2022-07-30T00:32:45;5.83;;;3.50;;
20621;SDS011;10470;42.670;23.354;2022-07-30T00:35:11;3.80;;;3.50;;
20621;SDS011;10470;42.670;23.354;2022-07-30T00:37:36;4.70;;;3.87;;
20621;SDS011;10470;42.670;23.354;2022-07-30T00:40:02;4.00;;;3.60;;
20621;SDS011;10470;42.670;23.354;2022-07-30T00:42:37;4.33;;;3.93;;
20621;SDS011;10470;42.670;23.354;2022-07-30T00:45:11;4.37;;;3.73;;
20621;SDS011;10470;42.670;23.354;2022-07-30T00:47:37;4.20;;;3.60;;
20621;SDS011;10470;42.670;23.354;2022-07-30T00:50:04;4.30;;;4.00;;
20621;SDS011;10470;42.670;23.354;2022-07-30T00:52:32;4.33;;;4.03;;
20621;SDS011;10470;42.670;23.354;2022-07-30T00:54:58;4.37;;;3.97;;
20621;SDS011;10470;42.670;23.354;2022-07-30T00:57:27;4.07;;;3.77;;
20621;SDS011;10470;42.670;23.354;2022-07-30T00:59:53;4.10;;;3.80;;
20621;SDS011;10470;42.670;23.354;2022-07-30T01:02:19;4.57;;;3.87;;
20621;SDS011;10470;42.670;23.354;2022-07-30T01:04:45;6.03;;;4.23;;
20621;SDS011;10470;42.670;23.354;2022-07-30T01:07:11;4.20;;;3.80;;
20621;SDS011;10470;42.670;23.354;2022-07-30T01:09:37;5.07;;;4.00;;
20621;SDS011;10470;42.670;23.354;2022-07-30T01:12:03;4.37;;;3.97;;
20621;SDS011;10470;42.670;23.354;2022-07-30T01:14:31;4.97;;;4.10;;
20621;SDS011;10470;42.670;23.354;2022-07-30T01:16:58;4.67;;;4.00;;
20621;SDS011;10470;42.670;23.354;2022-07-30T01:19:25;4.40;;;4.00;;
20621;SDS011;10470;42.670;23.354;2022-07-30T01:22:18;4.40;;;4.10;;
20621;SDS011;10470;42.670;23.354;2022-07-30T01:24:56;5.30;;;4.07;;
20621;SDS011;10470;42.670;23.354;2022-07-30T01:27:34;4.87;;;4.30;;
20621;SDS011;10470;42.670;23.354;2022-07-30T01:30:03;4.40;;;3.90;;
20621;SDS011;10470;42.670;23.354;2022-07-30T01:32:31;4.57;;;4.17;;
20621;SDS011;10470;42.670;23.354;2022-07-30T01:34:58;6.63;;;4.20;;
20621;SDS011;10470;42.670;23.354;2022-07-30T01:37:26;6.00;;;4.10;;
20621;SDS011;10470;42.670;23.354;2022-07-30T01:39:53;4.43;;;4.03;;
20621;SDS011;10470;42.670;23.354;2022-07-30T01:42:19;4.40;;;4.10;;
20621;SDS011;10470;42.670;23.354;2022-07-30T01:44:47;4.63;;;4.23;;
20621;SDS011;10470;42.670;23.354;2022-07-30T01:47:14;5.73;;;4.07;;
20621;SDS011;10470;42.670;23.354;2022-07-30T01:49:41;4.67;;;4.27;;
20621;SDS011;10470;42.670;23.354;2022-07-30T01:52:09;5.17;;;4.13;;
20621;SDS011;10470;42.670;23.354;2022-07-30T01:54:36;4.87;;;4.37;;
20621;SDS011;10470;42.670;23.354;2022-07-30T01:57:04;7.50;;;4.47;;
20621;SDS011;10470;42.670;23.354;2022-07-30T01:59:32;4.60;;;4.20;;
20621;SDS011;10470;42.670;23.354;2022-07-30T02:01:59;4.57;;;4.17;;
20621;SDS011;10470;42.670;23.354;2022-07-30T02:04:26;5.17;;;3.80;;
20621;SDS011;10470;42.670;23.354;2022-07-30T02:09:27;4.93;;;4.17;;
20621;SDS011;10470;42.670;23.354;2022-07-30T02:11:57;6.83;;;4.30;;
20621;SDS011;10470;42.670;23.354;2022-07-30T02:14:51;4.83;;;4.43;;
20621;SDS011;10470;42.670;23.354;2022-07-30T02:17:22;5.27;;;4.50;;
20621;SDS011;10470;42.670;23.354;2022-07-30T02:19:52;6.60;;;4.50;;
20621;SDS011;10470;42.670;23.354;2022-07-30T02:22:21;8.67;;;4.20;;
20621;SDS011;10470;42.670;23.354;2022-07-30T02:24:49;8.63;;;4.63;;
20621;SDS011;10470;42.670;23.354;2022-07-30T02:27:21;5.93;;;4.10;;
20621;SDS011;10470;42.670;23.354;2022-07-30T02:29:51;5.33;;;4.50;;
20621;SDS011;10470;42.670;23.354;2022-07-30T02:32:19;6.43;;;4.47;;
20621;SDS011;10470;42.670;23.354;2022-07-30T02:34:49;4.93;;;4.63;;
20621;SDS011;10470;42.670;23.354;2022-07-30T02:37:17;5.60;;;4.50;;
20621;SDS011;10470;42.670;23.354;2022-07-30T02:39:47;4.80;;;4.30;;
20621;SDS011;10470;42.670;23.354;2022-07-30T02:42:13;5.70;;;4.60;;
20621;SDS011;10470;42.670;23.354;2022-07-30T02:44:41;6.43;;;4.37;;
20621;SDS011;10470;42.670;23.354;2022-07-30T02:47:08;5.30;;;4.63;;
20621;SDS011;10470;42.670;23.354;2022-07-30T02:49:35;5.43;;;4.43;;
20621;SDS011;10470;42.670;23.354;2022-07-30T02:52:03;5.40;;;4.40;;
20621;SDS011;10470;42.670;23.354;2022-07-30T02:54:33;4.73;;;4.00;;
20621;SDS011;10470;42.670;23.354;2022-07-30T02:57:02;4.70;;;4.33;;
20621;SDS011;10470;42.670;23.354;2022-07-30T02:59:29;4.93;;;4.43;;
20621;SDS011;10470;42.670;23.354;2022-07-30T03:01:57;5.00;;;4.50;;
20621;SDS011;10470;42.670;23.354;2022-07-30T03:04:23;5.93;;;4.70;;
20621;SDS011;10470;42.670;23.354;2022-07-30T03:06:49;5.70;;;4.53;;
20621;SDS011;10470;42.670;23.354;2022-07-30T03:09:16;5.13;;;4.73;;
20621;SDS011;10470;42.670;23.354;2022-07-30T03:11:42;6.90;;;4.70;;
20621;SDS011;10470;42.670;23.354;2022-07-30T03:14:09;5.83;;;4.67;;
20621;SDS011;10470;42.670;23.354;2022-07-30T03:16:35;5.13;;;4.50;;
20621;SDS011;10470;42.670;23.354;2022-07-30T03:19:02;5.07;;;4.40;;
20621;SDS011;10470;42.670;23.354;2022-07-30T03:21:33;5.97;;;4.63;;
20621;SDS011;10470;42.670;23.354;2022-07-30T03:24:01;7.00;;;4.50;;
20621;SDS011;10470;42.670;23.354;2022-07-30T03:26:29;7.07;;;4.70;;
20621;SDS011;10470;42.670;23.354;2022-07-30T03:28:55;5.47;;;4.17;;
20621;SDS011;10470;42.670;23.354;2022-07-30T03:31:22;6.13;;;4.43;;
20621;SDS011;10470;42.670;23.354;2022-07-30T03:33:47;4.93;;;4.53;;
20621;SDS011;10470;42.670;23.354;2022-07-30T03:36:14;5.23;;;4.73;;
20621;SDS011;10470;42.670;23.354;2022-07-30T03:38:41;5.83;;;4.43;;
20621;SDS011;10470;42.670;23.354;2022-07-30T03:41:08;6.50;;;4.87;;
20621;SDS011;10470;42.670;23.354;2022-07-30T03:43:35;6.97;;;4.83;;
20621;SDS011;10470;42.670;23.354;2022-07-30T03:46:02;6.73;;;4.47;;
20621;SDS011;10470;42.670;23.354;2022-07-30T03:48:29;5.30;;;4.90;;
20621;SDS011;10470;42.670;23.354;2022-07-30T03:50:57;6.30;;;4.93;;
20621;SDS011;10470;42.670;23.354;2022-07-30T03:53:24;5.30;;;4.80;;
20621;SDS011;10470;42.670;23.354;2022-07-30T03:55:51;5.97;;;4.13;;
20621;SDS011;10470;42.670;23.354;2022-07-30T03:58:17;6.40;;;4.53;;
20621;SDS011;10470;42.670;23.354;2022-07-30T04:00:46;6.20;;;4.63;;
20621;SDS011;10470;42.670;23.354;2022-07-30T04:03:13;5.40;;;4.90;;
20621;SDS011;10470;42.670;23.354;2022-07-30T04:05:48;4.93;;;4.43;;
20621;SDS011;10470;42.670;23.354;2022-07-30T04:08:14;6.13;;;4.63;;
20621;SDS011;10470;42.670;23.354;2022-07-30T04:10:39;5.83;;;5.23;;
20621;SDS011;10470;42.670;23.354;2022-07-30T04:13:04;5.17;;;4.73;;
20621;SDS011;10470;42.670;23.354;2022-07-30T04:15:31;5.53;;;5.03;;
20621;SDS011;10470;42.670;23.354;2022-07-30T04:18:02;6.50;;;5.43;;
20621;SDS011;10470;42.670;23.354;2022-07-30T04:20:33;8.27;;;4.80;;
20621;SDS011;10470;42.670;23.354;2022-07-30T04:23:04;6.03;;;5.23;;
20621;SDS011;10470;42.670;23.354;2022-07-30T04:25:31;6.43;;;5.27;;
20621;SDS011;10470;42.670;23.354;2022-07-30T04:27:57;5.53;;;5.00;;
20621;SDS011;10470;42.670;23.354;2022-07-30T04:30:23;5.97;;;5.47;;
20621;SDS011;10470;42.670;23.354;2022-07-30T04:32:49;9.60;;;5.47;;
20621;SDS011;10470;42.670;23.354;2022-07-30T04:35:14;6.07;;;5.47;;
20621;SDS011;10470;42.670;23.354;2022-07-30T04:37:40;7.07;;;5.80;;
20621;SDS011;10470;42.670;23.354;2022-07-30T04:40:05;8.00;;;6.03;;
20621;SDS011;10470;42.670;23.354;2022-07-30T04:42:32;7.17;;;6.43;;
20621;SDS011;10470;42.670;23.354;2022-07-30T04:44:57;6.37;;;5.50;;
20621;SDS011;10470;42.670;23.354;2022-07-30T04:47:23;8.80;;;5.77;;
20621;SDS011;10470;42.670;23.354;2022-07-30T04:49:49;6.60;;;5.70;;
20621;SDS011;10470;42.670;23.354;2022-07-30T04:52:17;9.30;;;6.33;;
20621;SDS011;10470;42.670;23.354;2022-07-30T04:54:57;8.13;;;6.73;;
20621;SDS011;10470;42.670;23.354;2022-07-30T04:57:26;8.73;;;6.57;;
20621;SDS011;10470;42.670;23.354;2022-07-30T04:59:52;10.90;;;6.57;;
20621;SDS011;10470;42.670;23.354;2022-07-30T05:02:18;9.10;;;6.73;;
20621;SDS011;10470;42.670;23.354;2022-07-30T05:04:46;9.43;;;6.40;;
20621;SDS011;10470;42.670;23.354;2022-07-30T05:07:14;8.23;;;6.40;;
20621;SDS011;10470;42.670;23.354;2022-07-30T05:09:41;6.80;;;6.10;;
20621;SDS011;10470;42.670;23.354;2022-07-30T05:12:07;10.50;;;6.93;;
20621;SDS011;10470;42.670;23.354;2022-07-30T05:14:33;12.83;;;6.40;;
20621;SDS011;10470;42.670;23.354;2022-07-30T05:16:59;8.13;;;6.47;;
20621;SDS011;10470;42.670;23.354;2022-07-30T05:19:24;12.37;;;6.27;;
20621;SDS011;10470;42.670;23.354;2022-07-30T05:21:50;8.93;;;6.53;;
20621;SDS011;10470;42.670;23.354;2022-07-30T05:24:16;8.63;;;6.47;;
20621;SDS011;10470;42.670;23.354;2022-07-30T05:26:42;9.47;;;6.43;;
20621;SDS011;10470;42.670;23.354;2022-07-30T05:29:08;9.17;;;6.43;;
20621;SDS011;10470;42.670;23.354;2022-07-30T05:31:33;9.80;;;6.27;;
20621;SDS011;10470;42.670;23.354;2022-07-30T05:33:58;8.97;;;5.93;;
20621;SDS011;10470;42.670;23.354;2022-07-30T05:36:24;11.90;;;6.97;;
20621;SDS011;10470;42.670;23.354;2022-07-30T05:38:50;9.80;;;6.40;;
20621;SDS011;10470;42.670;23.354;2022-07-30T05:41:15;10.30;;;6.57;;
20621;SDS011;10470;42.670;23.354;2022-07-30T05:43:41;9.70;;;6.37;;
20621;SDS011;10470;42.670;23.354;2022-07-30T05:46:07;7.57;;;6.60;;
20621;SDS011;10470;42.670;23.354;2022-07-30T05:48:32;10.70;;;6.00;;
20621;SDS011;10470;42.670;23.354;2022-07-30T05:51:03;10.23;;;7.10;;
20621;SDS011;10470;42.670;23.354;2022-07-30T05:53:29;11.47;;;6.40;;
20621;SDS011;10470;42.670;23.354;2022-07-30T05:55:54;10.37;;;7.10;;
20621;SDS011;10470;42.670;23.354;2022-07-30T05:58:20;10.50;;;6.57;;
20621;SDS011;10470;42.670;23.354;2022-07-30T06:00:46;11.00;;;7.20;;
20621;SDS011;10470;42.670;23.354;2022-07-30T06:03:11;12.13;;;7.63;;
20621;SDS011;10470;42.670;23.354;2022-07-30T06:05:37;10.43;;;6.70;;
20621;SDS011;10470;42.670;23.354;2022-07-30T06:08:02;10.10;;;6.83;;
20621;SDS011;10470;42.670;23.354;2022-07-30T06:10:28;11.27;;;6.67;;
20621;SDS011;10470;42.670;23.354;2022-07-30T06:12:55;11.27;;;7.43;;
20621;SDS011;10470;42.670;23.354;2022-07-30T06:15:20;10.47;;;7.60;;
20621;SDS011;10470;42.670;23.354;2022-07-30T06:17:46;10.20;;;7.23;;
20621;SDS011;10470;42.670;23.354;2022-07-30T06:20:12;11.07;;;6.47;;
20621;SDS011;10470;42.670;23.354;2022-07-30T06:22:39;8.80;;;6.43;;
20621;SDS011;10470;42.670;23.354;2022-07-30T06:25:05;9.57;;;6.60;;
20621;SDS011;10470;42.670;23.354;2022-07-30T06:27:31;9.80;;;6.50;;
20621;SDS011;10470;42.670;23.354;2022-07-30T06:30:01;10.97;;;6.77;;
20621;SDS011;10470;42.670;23.354;2022-07-30T06:32:30;8.70;;;6.00;;
20621;SDS011;10470;42.670;23.354;2022-07-30T06:34:56;7.47;;;5.87;;
20621;SDS011;10470;42.670;23.354;2022-07-30T06:37:21;9.53;;;6.00;;
20621;SDS011;10470;42.670;23.354;2022-07-30T06:39:47;8.50;;;6.00;;
20621;SDS011;10470;42.670;23.354;2022-07-30T06:42:12;7.20;;;6.20;;
20621;SDS011;10470;42.670;23.354;2022-07-30T06:44:38;7.53;;;6.20;;
20621;SDS011;10470;42.670;23.354;2022-07-30T06:47:04;8.33;;;6.23;;
20621;SDS011;10470;42.670;23.354;2022-07-30T06:49:31;7.87;;;6.20;;
20621;SDS011;10470;42.670;23.354;2022-07-30T06:51:57;8.80;;;5.63;;
20621;SDS011;10470;42.670;23.354;2022-07-30T06:54:22;6.03;;;5.43;;
20621;SDS011;10470;42.670;23.354;2022-07-30T06:56:48;8.10;;;5.70;;
20621;SDS011;10470;42.670;23.354;2022-07-30T06:59:13;9.07;;;5.50;;
20621;SDS011;10470;42.670;23.354;2022-07-30T07:01:39;7.07;;;5.83;;
20621;SDS011;10470;42.670;23.354;2022-07-30T07:04:05;6.20;;;5.60;;
20621;SDS011;10470;42.670;23.354;2022-07-30T07:06:30;9.33;;;6.20;;
20621;SDS011;10470;42.670;23.354;2022-07-30T07:08:56;7.73;;;5.97;;
20621;SDS011;10470;42.670;23.354;2022-07-30T07:11:22;9.07;;;5.83;;
20621;SDS011;10470;42.670;23.354;2022-07-30T07:13:47;7.37;;;6.37;;
20621;SDS011;10470;42.670;23.354;2022-07-30T07:16:13;7.13;;;6.30;;
20621;SDS011;10470;42.670;23.354;2022-07-30T07:18:38;6.83;;;5.60;;
20621;SDS011;10470;42.670;23.354;2022-07-30T07:21:04;7.43;;;5.80;;
20621;SDS011;10470;42.670;23.354;2022-07-30T07:23:31;5.90;;;5.30;;
20621;SDS011;10470;42.670;23.354;2022-07-30T07:25:57;8.97;;;5.93;;
20621;SDS011;10470;42.670;23.354;2022-07-30T07:28:23;6.47;;;5.40;;
20621;SDS011;10470;42.670;23.354;2022-07-30T07:30:48;6.97;;;6.03;;
20621;SDS011;10470;42.670;23.354;2022-07-30T07:33:14;7.10;;;5.37;;
20621;SDS011;10470;42.670;23.354;2022-07-30T07:35:39;6.07;;;5.57;;
20621;SDS011;10470;42.670;23.354;2022-07-30T07:38:05;10.87;;;6.13;;
20621;SDS011;10470;42.670;23.354;2022-07-30T07:40:30;6.07;;;5.20;;
20621;SDS011;10470;42.670;23.354;2022-07-30T07:42:56;7.50;;;5.40;;
20621;SDS011;10470;42.670;23.354;2022-07-30T07:45:21;7.10;;;5.50;;
20621;SDS011;10470;42.670;23.354;2022-07-30T07:47:47;5.67;;;5.03;;
20621;SDS011;10470;42.670;23.354;2022-07-30T07:50:14;6.20;;;5.33;;
20621;SDS011;10470;42.670;23.354;2022-07-30T07:52:41;6.60;;;5.00;;
20621;SDS011;10470;42.670;23.354;2022-07-30T07:55:07;6.07;;;5.43;;
20621;SDS011;10470;42.670;23.354;2022-07-30T07:57:39;6.00;;;5.13;;
20621;SDS011;10470;42.670;23.354;2022-07-30T08:00:07;5.67;;;5.10;;
20621;SDS011;10470;42.670;23.354;2022-07-30T08:02:34;6.33;;;5.10;;
20621;SDS011;10470;42.670;23.354;2022-07-30T08:05:00;7.77;;;5.30;;
20621;SDS011;10470;42.670;23.354;2022-07-30T08:07:25;7.23;;;5.43;;
20621;SDS011;10470;42.670;23.354;2022-07-30T08:09:51;5.93;;;5.43;;
20621;SDS011;10470;42.670;23.354;2022-07-30T08:12:16;11.43;;;5.70;;
20621;SDS011;10470;42.670;23.354;2022-07-30T08:14:42;7.07;;;5.40;;
20621;SDS011;10470;42.670;23.354;2022-07-30T08:17:07;7.63;;;5.60;;
20621;SDS011;10470;42.670;23.354;2022-07-30T08:19:33;5.97;;;5.00;;
20621;SDS011;10470;42.670;23.354;2022-07-30T08:21:59;5.47;;;4.53;;
20621;SDS011;10470;42.670;23.354;2022-07-30T08:24:24;6.63;;;5.20;;
20621;SDS011;10470;42.670;23.354;2022-07-30T08:26:50;6.60;;;5.30;;
20621;SDS011;10470;42.670;23.354;2022-07-30T08:29:16;5.43;;;4.93;;
20621;SDS011;10470;42.670;23.354;2022-07-30T08:31:41;5.37;;;4.90;;
20621;SDS011;10470;42.670;23.354;2022-07-30T08:34:07;7.03;;;5.53;;
20621;SDS011;10470;42.670;23.354;2022-07-30T08:36:32;5.63;;;5.10;;
20621;SDS011;10470;42.670;23.354;2022-07-30T08:38:58;6.10;;;5.50;;
20621;SDS011;10470;42.670;23.354;2022-07-30T08:41:23;6.90;;;5.00;;
20621;SDS011;10470;42.670;23.354;2022-07-30T08:43:51;5.87;;;5.13;;
20621;SDS011;10470;42.670;23.354;2022-07-30T08:46:18;5.73;;;5.23;;
20621;SDS011;10470;42.670;23.354;2022-07-30T08:48:48;6.43;;;5.40;;
20621;SDS011;10470;42.670;23.354;2022-07-30T08:51:16;6.00;;;5.27;;
20621;SDS011;10470;42.670;23.354;2022-07-30T08:53:43;5.93;;;5.00;;
20621;SDS011;10470;42.670;23.354;2022-07-30T08:56:10;5.60;;;5.10;;
20621;SDS011;10470;42.670;23.354;2022-07-30T08:58:36;5.53;;;4.87;;
20621;SDS011;10470;42.670;23.354;2022-07-30T09:01:03;6.93;;;5.20;;
20621;SDS011;10470;42.670;23.354;2022-07-30T09:03:29;7.17;;;5.33;;
20621;SDS011;10470;42.670;23.354;2022-07-30T09:05:55;5.70;;;5.20;;
20621;SDS011;10470;42.670;23.354;2022-07-30T09:08:20;6.23;;;5.73;;
20621;SDS011;10470;42.670;23.354;2022-07-30T09:10:46;7.33;;;5.57;;
20621;SDS011;10470;42.670;23.354;2022-07-30T09:16:21;5.70;;;5.10;;
20621;SDS011;10470;42.670;23.354;2022-07-30T09:18:48;5.83;;;5.33;;
20621;SDS011;10470;42.670;23.354;2022-07-30T09:21:18;5.60;;;5.07;;
20621;SDS011;10470;42.670;23.354;2022-07-30T09:26:19;6.97;;;5.40;;
20621;SDS011;10470;42.670;23.354;2022-07-30T09:28:45;6.73;;;5.10;;
20621;SDS011;10470;42.670;23.354;2022-07-30T09:31:10;5.45;;;4.95;;
20621;SDS011;10470;42.670;23.354;2022-07-30T09:33:40;5.13;;;4.60;;
20621;SDS011;10470;42.670;23.354;2022-07-30T09:36:11;6.47;;;4.80;;
20621;SDS011;10470;42.670;23.354;2022-07-30T09:41:12;5.63;;;4.85;;
20621;SDS011;10470;42.670;23.354;2022-07-30T09:46:09;5.30;;;4.90;;
20621;SDS011;10470;42.670;23.354;2022-07-30T09:48:35;5.53;;;5.10;;
20621;SDS011;10470;42.670;23.354;2022-07-30T09:51:01;6.65;;;5.20;;
20621;SDS011;10470;42.670;23.354;2022-07-30T09:53:26;4.97;;;4.45;;
20621;SDS011;10470;42.670;23.354;2022-07-30T09:55:52;6.85;;;4.60;;
20621;SDS011;10470;42.670;23.354;2022-07-30T09:58:17;4.70;;;4.30;;
20621;SDS011;10470;42.670;23.354;2022-07-30T10:00:43;5.35;;;4.35;;
20621;SDS011;10470;42.670;23.354;2022-07-30T10:08:15;5.57;;;4.60;;
20621;SDS011;10470;42.670;23.354;2022-07-30T10:10:40;5.07;;;4.70;;
20621;SDS011;10470;42.670;23.354;2022-07-30T10:13:07;5.00;;;4.45;;
20621;SDS011;10470;42.670;23.354;2022-07-30T10:15:34;4.72;;;4.40;;
20621;SDS011;10470;42.670;23.354;2022-07-30T10:18:01;5.22;;;4.72;;
20621;SDS011;10470;42.670;23.354;2022-07-30T10:20:28;5.95;;;5.05;;
20621;SDS011;10470;42.670;23.354;2022-07-30T10:22:54;6.07;;;5.35;;
20621;SDS011;10470;42.670;23.354;2022-07-30T10:25:20;5.70;;;5.10;;
20621;SDS011;10470;42.670;23.354;2022-07-30T10:27:48;5.75;;;5.25;;
20621;SDS011;10470;42.670;23.354;2022-07-30T10:30:14;5.82;;;5.22;;
20621;SDS011;10470;42.670;23.354;2022-07-30T10:32:40;7.97;;;6.00;;
20621;SDS011;10470;42.670;23.354;2022-07-30T10:35:07;6.72;;;6.13;;
20621;SDS011;10470;42.670;23.354;2022-07-30T10:37:33;6.07;;;5.50;;
20621;SDS011;10470;42.670;23.354;2022-07-30T10:48:14;7.00;;;6.38;;
20621;SDS011;10470;42.670;23.354;2022-07-30T10:50:51;6.80;;;6.20;;
20621;SDS011;10470;42.670;23.354;2022-07-30T10:53:33;6.43;;;5.93;;
20621;SDS011;10470;42.670;23.354;2022-07-30T10:56:09;6.80;;;6.10;;
20621;SDS011;10470;42.670;23.354;2022-07-30T10:58:55;6.75;;;6.22;;
20621;SDS011;10470;42.670;23.354;2022-07-30T11:01:24;6.57;;;6.05;;
20621;SDS011;10470;42.670;23.354;2022-07-30T11:06:48;6.75;;;6.22;;
20621;SDS011;10470;42.670;23.354;2022-07-30T11:09:33;7.47;;;6.78;;
20621;SDS011;10470;42.670;23.354;2022-07-30T11:12:03;7.70;;;7.07;;
20621;SDS011;10470;42.670;23.354;2022-07-30T11:17:11;7.85;;;6.95;;
20621;SDS011;10470;42.670;23.354;2022-07-30T11:22:32;7.00;;;6.50;;
20621;SDS011;10470;42.670;23.354;2022-07-30T11:27:54;8.65;;;6.63;;
20621;SDS011;10470;42.670;23.354;2022-07-30T11:32:52;7.88;;;7.07;;
20621;SDS011;10470;42.670;23.354;2022-07-30T11:35:38;6.93;;;6.35;;
20621;SDS011;10470;42.670;23.354;2022-07-30T11:40:30;7.13;;;6.55;;
20621;SDS011;10470;42.670;23.354;2022-07-30T11:45:49;7.78;;;7.15;;
20621;SDS011;10470;42.670;23.354;2022-07-30T11:48:17;7.93;;;7.32;;
20621;SDS011;10470;42.670;23.354;2022-07-30T11:50:44;7.72;;;7.03;;
20621;SDS011;10470;42.670;23.354;2022-07-30T11:53:18;7.32;;;6.72;;
20621;SDS011;10470;42.670;23.354;2022-07-30T11:55:48;6.60;;;6.07;;
20621;SDS011;10470;42.670;23.354;2022-07-30T11:58:28;6.72;;;6.13;;
20621;SDS011;10470;42.670;23.354;2022-07-30T12:01:07;6.95;;;6.35;;
20621;SDS011;10470;42.670;23.354;2022-07-30T12:03:43;8.15;;;7.18;;
20621;SDS011;10470;42.670;23.354;2022-07-30T12:06:11;7.00;;;6.50;;
20621;SDS011;10470;42.670;23.354;2022-07-30T12:08:42;9.07;;;7.10;;
20621;SDS011;10470;42.670;23.354;2022-07-30T12:11:09;6.95;;;6.45;;
20621;SDS011;10470;42.670;23.354;2022-07-30T12:13:36;7.20;;;6.70;;
20621;SDS011;10470;42.670;23.354;2022-07-30T12:16:06;7.50;;;6.90;;
20621;SDS011;10470;42.670;23.354;2022-07-30T12:18:33;7.55;;;7.00;;
20621;SDS011;10470;42.670;23.354;2022-07-30T12:21:00;7.28;;;6.70;;
20621;SDS011;10470;42.670;23.354;2022-07-30T12:23:27;7.72;;;6.95;;
20621;SDS011;10470;42.670;23.354;2022-07-30T12:25:54;6.82;;;6.25;;
20621;SDS011;10470;42.670;23.354;2022-07-30T12:28:21;6.93;;;6.43;;
20621;SDS011;10470;42.670;23.354;2022-07-30T12:30:52;7.60;;;6.97;;
20621;SDS011;10470;42.670;23.354;2022-07-30T12:33:18;7.53;;;6.72;;
20621;SDS011;10470;42.670;23.354;2022-07-30T12:35:46;7.10;;;6.50;;
20621;SDS011;10470;42.670;23.354;2022-07-30T12:38:12;6.90;;;6.32;;
20621;SDS011;10470;42.670;23.354;2022-07-30T12:41:00;7.43;;;6.72;;
20621;SDS011;10470;42.670;23.354;2022-07-30T12:46:21;8.30;;;6.82;;
20621;SDS011;10470;42.670;23.354;2022-07-30T12:49:02;10.07;;;7.05;;
20621;SDS011;10470;42.670;23.354;2022-07-30T12:51:30;7.47;;;6.88;;
20621;SDS011;10470;42.670;23.354;2022-07-30T12:53:57;6.97;;;6.38;;
20621;SDS011;10470;42.670;23.354;2022-07-30T12:56:24;7.30;;;6.65;;
20621;SDS011;10470;42.670;23.354;2022-07-30T12:58:51;7.32;;;6.72;;
20621;SDS011;10470;42.670;23.354;2022-07-30T13:01:18;7.18;;;6.43;;
20621;SDS011;10470;42.670;23.354;2022-07-30T13:03:43;7.18;;;6.65;;
20621;SDS011;10470;42.670;23.354;2022-07-30T13:11:16;7.05;;;6.40;;
20621;SDS011;10470;42.670;23.354;2022-07-30T13:13:43;7.90;;;7.20;;
20621;SDS011;10470;42.670;23.354;2022-07-30T13:16:09;7.43;;;6.78;;
20621;SDS011;10470;42.670;23.354;2022-07-30T13:18:35;7.13;;;6.63;;
20621;SDS011;10470;42.670;23.354;2022-07-30T13:21:02;7.15;;;6.63;;
20621;SDS011;10470;42.670;23.354;2022-07-30T13:23:31;7.45;;;6.95;;
20621;SDS011;10470;42.670;23.354;2022-07-30T13:25:57;7.35;;;6.85;;
20621;SDS011;10470;42.670;23.354;2022-07-30T13:28:23;7.03;;;6.53;;
20621;SDS011;10470;42.670;23.354;2022-07-30T13:30:49;7.65;;;6.38;;
20621;SDS011;10470;42.670;23.354;2022-07-30T13:33:15;6.75;;;6.18;;
20621;SDS011;10470;42.670;23.354;2022-07-30T13:35:41;7.22;;;6.28;;
20621;SDS011;10470;42.670;23.354;2022-07-30T13:38:07;8.35;;;6.50;;
20621;SDS011;10470;42.670;23.354;2022-07-30T13:40:35;6.60;;;6.10;;
20621;SDS011;10470;42.670;23.354;2022-07-30T13:43:01;7.47;;;6.90;;
20621;SDS011;10470;42.670;23.354;2022-07-30T13:45:27;6.75;;;6.35;;
20621;SDS011;10470;42.670;23.354;2022-07-30T13:47:54;7.57;;;6.88;;
20621;SDS011;10470;42.670;23.354;2022-07-30T13:50:19;7.50;;;6.80;;
20621;SDS011;10470;42.670;23.354;2022-07-30T13:52:45;7.82;;;7.10;;
20621;SDS011;10470;42.670;23.354;2022-07-30T13:55:11;7.70;;;6.95;;
20621;SDS011;10470;42.670;23.354;2022-07-30T13:57:37;6.68;;;6.07;;
20621;SDS011;10470;42.670;23.354;2022-07-30T14:00:03;6.95;;;6.40;;
20621;SDS011;10470;42.670;23.354;2022-07-30T14:02:30;6.88;;;6.40;;
20621;SDS011;10470;42.670;23.354;2022-07-30T14:04:56;6.90;;;6.30;;
20621;SDS011;10470;42.670;23.354;2022-07-30T14:07:21;7.93;;;6.47;;
20621;SDS011;10470;42.670;23.354;2022-07-30T14:09:47;7.20;;;6.50;;
20621;SDS011;10470;42.670;23.354;2022-07-30T14:12:13;7.72;;;6.90;;
20621;SDS011;10470;42.670;23.354;2022-07-30T14:14:38;7.20;;;6.70;;
20621;SDS011;10470;42.670;23.354;2022-07-30T14:17:04;7.53;;;6.93;;
20621;SDS011;10470;42.670;23.354;2022-07-30T14:19:29;7.60;;;7.00;;
20621;SDS011;10470;42.670;23.354;2022-07-30T14:21:55;7.25;;;6.75;;
20621;SDS011;10470;42.670;23.354;2022-07-30T14:24:21;7.57;;;6.88;;
20621;SDS011;10470;42.670;23.354;2022-07-30T14:26:47;7.22;;;6.53;;
20621;SDS011;10470;42.670;23.354;2022-07-30T14:29:13;6.80;;;6.30;;
20621;SDS011;10470;42.670;23.354;2022-07-30T14:31:39;7.65;;;6.82;;
20621;SDS011;10470;42.670;23.354;2022-07-30T14:34:04;7.50;;;6.90;;
20621;SDS011;10470;42.670;23.354;2022-07-30T14:36:30;6.75;;;6.25;;
20621;SDS011;10470;42.670;23.354;2022-07-30T14:38:56;7.22;;;6.55;;
20621;SDS011;10470;42.670;23.354;2022-07-30T14:41:22;7.20;;;6.70;;
20621;SDS011;10470;42.670;23.354;2022-07-30T14:43:48;10.07;;;7.25;;
20621;SDS011;10470;42.670;23.354;2022-07-30T14:46:13;7.93;;;7.10;;
20621;SDS011;10470;42.670;23.354;2022-07-30T14:48:39;8.75;;;8.02;;
20621;SDS011;10470;42.670;23.354;2022-07-30T14:51:04;7.95;;;7.00;;
20621;SDS011;10470;42.670;23.354;2022-07-30T14:53:30;9.43;;;8.50;;
20621;SDS011;10470;42.670;23.354;2022-07-30T14:55:56;13.80;;;9.25;;
20621;SDS011;10470;42.670;23.354;2022-07-30T14:58:21;12.68;;;8.77;;
20621;SDS011;10470;42.670;23.354;2022-07-30T15:00:47;11.55;;;8.98;;
20621;SDS011;10470;42.670;23.354;2022-07-30T15:03:12;13.75;;;9.02;;
20621;SDS011;10470;42.670;23.354;2022-07-30T15:05:38;17.65;;;10.00;;
20621;SDS011;10470;42.670;23.354;2022-07-30T15:08:03;10.25;;;8.73;;
20621;SDS011;10470;42.670;23.354;2022-07-30T15:10:29;9.77;;;8.60;;
20621;SDS011;10470;42.670;23.354;2022-07-30T15:12:54;8.35;;;7.65;;
20621;SDS011;10470;42.670;23.354;2022-07-30T15:15:20;12.30;;;8.80;;
20621;SDS011;10470;42.670;23.354;2022-07-30T15:17:45;17.73;;;12.57;;
20621;SDS011;10470;42.670;23.354;2022-07-30T15:20:11;10.73;;;9.05;;
20621;SDS011;10470;42.670;23.354;2022-07-30T15:22:36;13.73;;;9.10;;
20621;SDS011;10470;42.670;23.354;2022-07-30T15:25:02;10.03;;;8.27;;
20621;SDS011;10470;42.670;23.354;2022-07-30T15:27:29;8.73;;;7.93;;